Time;durP1;ratioP1;P1;durP2;ratioP2;P2;SDS_P1;SDS_P2;PMS_P1;PMS_P2;Temp;Humidity;BMP_temperature;BMP_pressure;BME280_temperature;BME280_humidity;BME280_pressure;Samples;Min_cycle;Max_cycle;Signal;HPM_P1;HPM_P2
2021/10/11 00:01:31;;;;;;;17.92;8.57;;;9.50;93.60;;;;;;5051878;28;20017;-70
2021/10/11 00:03:56;;;;;;;20.65;7.93;;;9.50;93.50;;;;;;5051107;28;20032;-70
2021/10/11 00:06:22;;;;;;;15.18;8.32;;;9.40;93.70;;;;;;5051197;28;20036;-69
2021/10/11 00:08:48;;;;;;;14.40;7.72;;;9.50;93.80;;;;;;5051289;28;20056;-70
2021/10/11 00:11:13;;;;;;;15.63;7.68;;;9.50;93.80;;;;;;5051330;28;20494;-70
2021/10/11 00:13:39;;;;;;;14.20;7.63;;;9.40;93.60;;;;;;5051727;28;20061;-70
2021/10/11 00:16:05;;;;;;;15.57;8.05;;;9.40;93.80;;;;;;5051104;28;20029;-71
2021/10/11 00:18:30;;;;;;;19.15;8.68;;;9.40;93.80;;;;;;5051160;28;20022;-69
2021/10/11 00:20:56;;;;;;;15.00;7.85;;;9.40;93.80;;;;;;5050911;28;20033;-70
2021/10/11 00:23:21;;;;;;;16.67;9.02;;;9.40;93.90;;;;;;5050864;28;20039;-69
2021/10/11 00:25:48;;;;;;;14.85;8.52;;;9.40;94.00;;;;;;5051666;28;20068;-69
2021/10/11 00:28:14;;;;;;;12.77;7.72;;;9.40;94.00;;;;;;5051126;28;20032;-71
2021/10/11 00:30:39;;;;;;;16.55;8.13;;;9.40;94.10;;;;;;5051014;28;20052;-70
2021/10/11 00:33:05;;;;;;;14.15;8.38;;;9.40;94.00;;;;;;5050847;28;20077;-69
2021/10/11 00:35:32;;;;;;;18.88;9.35;;;9.40;94.10;;;;;;5051259;28;20468;-70
2021/10/11 00:37:57;;;;;;;16.30;9.07;;;9.40;94.10;;;;;;5051360;28;20029;-70
2021/10/11 00:40:23;;;;;;;16.50;8.32;;;9.40;94.30;;;;;;5051067;28;20572;-71
2021/10/11 00:42:50;;;;;;;18.60;9.25;;;9.40;94.20;;;;;;5051108;28;20033;-70
2021/10/11 00:45:16;;;;;;;20.08;8.50;;;9.40;94.10;;;;;;5050885;28;20037;-70
2021/10/11 00:47:41;;;;;;;15.45;8.20;;;9.40;94.10;;;;;;5050979;28;20363;-70
2021/10/11 00:50:08;;;;;;;15.73;9.05;;;9.40;94.20;;;;;;5050561;28;20033;-70
2021/10/11 00:52:34;;;;;;;20.77;9.57;;;9.40;94.20;;;;;;5051263;28;20070;-71
2021/10/11 00:55:00;;;;;;;16.95;8.95;;;9.40;94.40;;;;;;5050691;28;20108;-71
2021/10/11 00:57:25;;;;;;;19.48;9.38;;;9.40;94.50;;;;;;5049434;28;20025;-71
2021/10/11 00:59:51;;;;;;;19.33;9.82;;;9.40;94.50;;;;;;5049650;28;20412;-71
2021/10/11 01:02:17;;;;;;;17.38;8.60;;;9.50;94.40;;;;;;5050792;28;20083;-71
2021/10/11 01:04:42;;;;;;;15.75;9.02;;;9.60;94.50;;;;;;5051211;28;20029;-71
2021/10/11 01:07:08;;;;;;;17.83;10.30;;;9.60;94.30;;;;;;5050640;28;20471;-71
2021/10/11 01:09:34;;;;;;;18.05;9.05;;;9.60;94.30;;;;;;5050478;28;20098;-71
2021/10/11 01:12:00;;;;;;;18.33;9.98;;;9.60;94.40;;;;;;5050448;28;20021;-71
2021/10/11 01:14:26;;;;;;;19.25;10.57;;;9.60;94.60;;;;;;5050772;28;20036;-71
2021/10/11 01:16:51;;;;;;;19.55;9.75;;;9.60;94.60;;;;;;5050970;28;20108;-71
2021/10/11 01:19:17;;;;;;;20.70;10.43;;;9.70;94.60;;;;;;5050405;28;20108;-70
2021/10/11 01:21:43;;;;;;;23.48;11.07;;;9.70;94.40;;;;;;5050871;28;20063;-71
2021/10/11 01:24:09;;;;;;;18.98;10.80;;;9.90;94.50;;;;;;5050616;28;20075;-72
2021/10/11 01:26:37;;;;;;;19.83;10.38;;;9.90;94.40;;;;;;5050418;28;20044;-70
2021/10/11 01:29:03;;;;;;;;;;;10.00;94.30;;;;;;5050802;28;20392;-72
2021/10/11 01:31:29;;;;;;;18.85;10.13;;;10.00;94.00;;;;;;5050627;28;19913;-71
2021/10/11 01:33:55;;;;;;;19.58;10.40;;;10.10;93.90;;;;;;5052455;28;20029;-72
2021/10/11 01:36:21;;;;;;;21.85;10.57;;;10.10;94.00;;;;;;5041250;28;20037;-72
2021/10/11 01:38:47;;;;;;;22.13;10.70;;;10.10;94.00;;;;;;5034272;28;20476;-72
2021/10/11 01:41:13;;;;;;;20.55;11.15;;;10.20;94.10;;;;;;5033839;28;20029;-71
2021/10/11 01:43:38;;;;;;;21.13;10.60;;;10.30;93.80;;;;;;5034401;28;20298;-71
2021/10/11 01:46:04;;;;;;;19.63;10.38;;;10.30;94.00;;;;;;5033991;28;20493;-71
2021/10/11 01:48:29;;;;;;;23.23;11.18;;;10.30;94.10;;;;;;5033712;28;20518;-71
2021/10/11 01:50:55;;;;;;;19.92;11.02;;;10.30;94.20;;;;;;5034010;28;20029;-71
2021/10/11 01:53:20;;;;;;;21.23;10.60;;;10.30;94.10;;;;;;5033760;28;20030;-71
2021/10/11 01:55:46;;;;;;;21.52;10.35;;;10.30;94.10;;;;;;5034232;28;20098;-71
2021/10/11 01:58:12;;;;;;;20.92;11.40;;;10.30;94.10;;;;;;5033692;28;20033;-71
2021/10/11 02:00:38;;;;;;;18.10;11.02;;;10.30;94.20;;;;;;5033544;28;20588;-71
2021/10/11 02:03:07;;;;;;;27.77;11.50;;;10.30;94.10;;;;;;5033717;28;20620;-71
2021/10/11 02:05:33;;;;;;;21.98;11.60;;;10.30;94.30;;;;;;5033514;28;20029;-70
2021/10/11 02:07:59;;;;;;;20.65;11.68;;;10.30;94.20;;;;;;5034115;28;20061;-69
2021/10/11 02:10:25;;;;;;;19.23;10.40;;;10.30;94.30;;;;;;5033474;28;20135;-71
2021/10/11 02:12:50;;;;;;;20.40;10.60;;;10.40;94.20;;;;;;5032449;28;20128;-70
2021/10/11 02:15:16;;;;;;;22.63;12.52;;;10.40;94.10;;;;;;5033301;28;20035;-70
2021/10/11 02:17:41;;;;;;;22.75;10.90;;;10.40;94.10;;;;;;5033355;28;20107;-71
2021/10/11 02:20:08;;;;;;;19.13;10.82;;;10.40;94.10;;;;;;5033061;28;20033;-72
2021/10/11 02:22:34;;;;;;;21.45;10.35;;;10.30;94.30;;;;;;5033543;28;20025;-72
2021/10/11 02:24:59;;;;;;;22.00;11.48;;;10.30;94.30;;;;;;5033360;28;20367;-72
2021/10/11 02:27:25;;;;;;;24.65;11.90;;;10.30;94.40;;;;;;5032257;28;20029;-71
2021/10/11 02:29:50;;;;;;;24.23;11.23;;;10.30;94.50;;;;;;5033224;28;20169;-70
2021/10/11 02:32:16;;;;;;;22.77;11.07;;;10.30;94.70;;;;;;5032876;28;20095;-71
2021/10/11 02:34:41;;;;;;;21.23;10.52;;;10.30;94.80;;;;;;5033268;28;20504;-71
2021/10/11 02:37:07;;;;;;;17.50;9.70;;;10.30;94.80;;;;;;5032961;28;20041;-71
2021/10/11 02:39:33;;;;;;;18.30;10.15;;;10.40;95.10;;;;;;5032820;28;20470;-71
2021/10/11 02:41:58;;;;;;;21.42;10.70;;;10.40;94.90;;;;;;5032950;28;20037;-71
2021/10/11 02:44:24;;;;;;;25.13;11.93;;;10.40;94.80;;;;;;5032806;28;20087;-71
2021/10/11 02:46:49;;;;;;;22.70;11.13;;;10.50;94.80;;;;;;5033242;28;20026;-71
2021/10/11 02:49:16;;;;;;;19.33;11.00;;;10.50;94.70;;;;;;5032659;28;20430;-71
2021/10/11 02:51:41;;;;;;;23.40;11.90;;;10.60;94.60;;;;;;5032476;28;20421;-70
2021/10/11 02:54:07;;;;;;;18.83;11.18;;;10.60;94.80;;;;;;5032715;28;20094;-71
2021/10/11 02:56:32;;;;;;;27.85;12.75;;;10.60;94.80;;;;;;5032388;28;20447;-71
2021/10/11 02:58:58;;;;;;;26.33;12.20;;;10.70;94.70;;;;;;5032505;28;20028;-71
2021/10/11 03:01:23;;;;;;;31.70;14.82;;;10.70;94.70;;;;;;5032886;28;20034;-71
2021/10/11 03:03:49;;;;;;;23.83;12.98;;;10.80;94.70;;;;;;5032510;28;20036;-71
2021/10/11 03:06:15;;;;;;;24.00;13.48;;;10.80;94.80;;;;;;5032240;28;20115;-71
2021/10/11 03:08:40;;;;;;;30.70;13.85;;;10.90;94.70;;;;;;5031866;28;20042;-71
2021/10/11 03:11:06;;;;;;;38.88;18.40;;;10.90;94.70;;;;;;5032238;28;20041;-70
2021/10/11 03:13:31;;;;;;;29.48;15.73;;;11.00;94.80;;;;;;5032622;28;20025;-71
2021/10/11 03:15:57;;;;;;;35.40;17.50;;;11.10;95.00;;;;;;5032130;28;20030;-70
2021/10/11 03:18:23;;;;;;;27.95;13.32;;;11.10;94.70;;;;;;5032038;28;20379;-71
2021/10/11 03:20:49;;;;;;;29.17;14.90;;;11.10;94.70;;;;;;5032058;28;20040;-71
2021/10/11 03:23:15;;;;;;;53.33;21.05;;;11.20;94.60;;;;;;5032333;28;20075;-71
2021/10/11 03:25:41;;;;;;;51.53;25.15;;;11.30;95.20;;;;;;5031191;28;20025;-71
2021/10/11 03:28:06;;;;;;;59.13;27.92;;;11.30;95.80;;;;;;5031900;28;20068;-71
2021/10/11 03:30:32;;;;;;;65.18;31.10;;;11.40;96.40;;;;;;5031539;28;20033;-71
2021/10/11 03:32:58;;;;;;;62.95;30.77;;;11.50;96.40;;;;;;5031895;28;20026;-71
2021/10/11 03:35:24;;;;;;;61.55;31.13;;;11.60;96.20;;;;;;5031705;28;20391;-71
2021/10/11 03:37:49;;;;;;;60.03;30.40;;;11.70;96.60;;;;;;5032157;28;20487;-71
2021/10/11 03:40:15;;;;;;;68.32;32.88;;;11.70;97.10;;;;;;5031873;28;20026;-71
2021/10/11 03:42:41;;;;;;;62.15;33.28;;;11.70;97.40;;;;;;5031744;28;20029;-71
2021/10/11 03:45:07;;;;;;;67.40;31.50;;;11.70;98.10;;;;;;5031928;28;20065;-71
2021/10/11 03:47:32;;;;;;;74.38;35.25;;;11.80;98.00;;;;;;5031450;28;20049;-71
2021/10/11 03:49:58;;;;;;;61.92;31.98;;;11.80;98.30;;;;;;5031676;28;20061;-70
2021/10/11 03:52:24;;;;;;;67.18;34.30;;;11.90;98.10;;;;;;5031984;28;20515;-71
2021/10/11 03:54:50;;;;;;;70.70;32.80;;;12.00;98.00;;;;;;5031385;28;20094;-71
2021/10/11 03:57:15;;;;;;;67.43;32.35;;;12.00;97.90;;;;;;5030831;28;20056;-71
2021/10/11 03:59:41;;;;;;;58.75;32.03;;;12.10;98.20;;;;;;5031374;28;20029;-72
2021/10/11 04:02:07;;;;;;;58.92;29.02;;;12.10;98.00;;;;;;5031398;28;20033;-71
2021/10/11 04:04:33;;;;;;;58.67;29.20;;;12.10;98.30;;;;;;5032083;28;20422;-71
2021/10/11 04:07:06;;;;;;;62.05;30.52;;;12.10;98.30;;;;;;5030422;28;20476;-72
2021/10/11 04:09:31;;;;;;;63.85;31.20;;;12.00;98.70;;;;;;5029920;28;20092;-71
2021/10/11 04:12:05;;;;;;;60.67;29.85;;;12.00;99.00;;;;;;5031584;28;20700;-71
2021/10/11 04:14:31;;;;;;;63.85;31.98;;;12.10;98.80;;;;;;5031342;28;20059;-71
2021/10/11 04:16:57;;;;;;;61.10;30.75;;;12.10;98.80;;;;;;5031725;28;20041;-70
2021/10/11 04:19:22;;;;;;;60.05;29.75;;;12.00;99.40;;;;;;5030013;28;20025;-71
2021/10/11 04:21:48;;;;;;;59.05;29.08;;;12.10;99.20;;;;;;5031317;28;20119;-72
2021/10/11 04:24:14;;;;;;;63.67;29.92;;;12.20;99.10;;;;;;5031264;28;20412;-72
2021/10/11 04:26:39;;;;;;;57.22;29.90;;;12.20;99.20;;;;;;5031146;28;20052;-72
2021/10/11 04:29:05;;;;;;;59.63;30.27;;;12.20;99.10;;;;;;5031313;28;20509;-71
2021/10/11 04:31:31;;;;;;;59.17;29.92;;;12.20;99.10;;;;;;5031338;28;20040;-71
2021/10/11 04:33:56;;;;;;;59.55;30.58;;;12.20;99.20;;;;;;5031053;28;20355;-71
2021/10/11 04:36:24;;;;;;;54.75;27.52;;;12.10;99.50;;;;;;5029937;28;20057;-71
2021/10/11 04:38:50;;;;;;;;;;;12.20;99.40;;;;;;5031370;28;20057;-71
2021/10/11 04:41:16;;;;;;;59.20;28.45;;;12.20;99.40;;;;;;5031153;28;19951;-71
2021/10/11 04:43:41;;;;;;;65.05;31.10;;;12.30;99.40;;;;;;5031164;28;20022;-72
2021/10/11 04:46:07;;;;;;;60.97;30.45;;;12.30;99.60;;;;;;5031219;28;20033;-71
2021/10/11 04:48:33;;;;;;;64.10;31.40;;;12.20;99.70;;;;;;5029694;28;20060;-72
2021/10/11 04:50:58;;;;;;;61.83;31.48;;;12.40;99.60;;;;;;5030844;28;20428;-72
2021/10/11 04:53:24;;;;;;;61.05;32.63;;;12.40;99.40;;;;;;5031434;28;20112;-72
2021/10/11 04:55:49;;;;;;;69.15;31.27;;;12.50;99.40;;;;;;5031218;28;20541;-71
2021/10/11 04:58:15;;;;;;;61.95;32.50;;;12.60;99.30;;;;;;5031077;28;20057;-72
2021/10/11 05:00:41;;;;;;;63.72;32.10;;;12.50;99.30;;;;;;5030631;28;20107;-72
2021/10/11 05:03:07;;;;;;;65.25;33.47;;;12.60;99.30;;;;;;5030916;28;20038;-72
2021/10/11 05:05:33;;;;;;;63.47;33.78;;;12.60;99.30;;;;;;5030611;28;20084;-72
2021/10/11 05:07:59;;;;;;;65.85;33.17;;;12.60;99.20;;;;;;5030995;28;20048;-71
2021/10/11 05:10:25;;;;;;;67.85;32.80;;;12.70;99.20;;;;;;5035013;28;20151;-71
2021/10/11 05:12:51;;;;;;;64.25;32.42;;;12.70;99.40;;;;;;5034308;28;20111;-72
2021/10/11 05:15:17;;;;;;;62.95;32.38;;;12.70;99.60;;;;;;5034728;28;20095;-73
2021/10/11 05:17:43;;;;;;;64.03;31.33;;;12.60;99.50;;;;;;5034037;28;20022;-73
2021/10/11 05:20:10;;;;;;;66.88;32.78;;;12.60;99.60;;;;;;5034050;28;20025;-73
2021/10/11 05:22:36;;;;;;;69.93;33.90;;;12.60;99.70;;;;;;5033567;28;20448;-79
2021/10/11 05:25:03;;;;;;;63.70;33.33;;;12.70;99.60;;;;;;5034252;28;20038;-72
2021/10/11 05:27:29;;;;;;;60.95;32.58;;;12.70;99.70;;;;;;5034113;28;20093;-73
2021/10/11 05:29:55;;;;;;;66.60;32.22;;;12.80;99.50;;;;;;5033846;28;20152;-72
2021/10/11 05:32:20;;;;;;;60.58;30.25;;;12.80;99.40;;;;;;5033859;28;20045;-71
2021/10/11 05:34:46;;;;;;;71.82;32.85;;;12.80;99.50;;;;;;5034197;28;20022;-71
2021/10/11 05:37:12;;;;;;;68.82;32.92;;;12.90;99.60;;;;;;5034348;28;20120;-72
2021/10/11 05:39:39;;;;;;;66.53;31.92;;;12.80;99.60;;;;;;5033849;28;20037;-72
2021/10/11 05:42:06;;;;;;;63.75;32.85;;;12.80;99.60;;;;;;5033699;28;20033;-73
2021/10/11 05:44:32;;;;;;;68.03;33.70;;;12.90;99.60;;;;;;5033654;28;20040;-73
2021/10/11 05:46:58;;;;;;;64.13;33.72;;;13.00;99.60;;;;;;5034106;28;20041;-72
2021/10/11 05:49:24;;;;;;;64.00;32.33;;;12.90;99.60;;;;;;5033748;28;20512;-72
2021/10/11 05:51:49;;;;;;;63.72;32.85;;;12.90;99.70;;;;;;5033621;28;20515;-73
2021/10/11 05:54:15;;;;;;;65.28;32.72;;;12.90;99.60;;;;;;5033643;28;20080;-72
2021/10/11 05:56:41;;;;;;;64.45;32.00;;;12.90;99.70;;;;;;5033178;28;20032;-73
2021/10/11 05:59:06;;;;;;;66.78;33.00;;;13.00;99.70;;;;;;5038969;28;20090;-70
2021/10/11 06:01:32;;;;;;;68.65;31.10;;;13.00;99.90;;;;;;5052555;28;20021;-71
2021/10/11 06:03:58;;;;;;;63.47;32.38;;;12.90;99.90;;;;;;5053366;28;20033;-70
2021/10/11 06:06:23;;;;;;;78.47;42.47;;;13.00;99.90;;;;;;5053089;28;20475;-70
2021/10/11 06:08:49;;;;;;;70.97;34.47;;;13.00;99.90;;;;;;5052985;28;20056;-72
2021/10/11 06:11:18;;;;;;;68.32;31.65;;;13.00;99.90;;;;;;5052950;28;20071;-70
2021/10/11 06:13:44;;;;;;;66.50;32.03;;;13.00;99.90;;;;;;5053564;28;20797;-70
2021/10/11 06:16:10;;;;;;;68.25;30.70;;;13.10;99.70;;;;;;5052697;28;20056;-70
2021/10/11 06:18:35;;;;;;;60.35;31.67;;;13.20;99.70;;;;;;5052464;28;20462;-70
2021/10/11 06:21:01;;;;;;;58.13;31.40;;;13.10;99.70;;;;;;5052252;28;20049;-70
2021/10/11 06:23:27;;;;;;;67.93;32.45;;;13.20;99.60;;;;;;5052804;28;20431;-71
2021/10/11 06:25:52;;;;;;;65.35;31.45;;;13.20;99.80;;;;;;5053225;28;20382;-70
2021/10/11 06:28:19;;;;;;;65.55;31.88;;;13.20;99.80;;;;;;5052873;28;20055;-70
2021/10/11 06:30:46;;;;;;;60.50;31.23;;;13.20;99.80;;;;;;5052489;28;20098;-70
2021/10/11 06:33:12;;;;;;;61.85;33.05;;;13.20;99.80;;;;;;5052759;28;20025;-71
2021/10/11 06:35:38;;;;;;;70.22;32.05;;;13.20;99.90;;;;;;5052726;28;20025;-71
2021/10/11 06:38:04;;;;;;;68.78;33.80;;;13.20;99.90;;;;;;5052781;28;20107;-71
2021/10/11 06:40:29;;;;;;;61.55;31.27;;;13.20;99.90;;;;;;5053085;28;20051;-71
2021/10/11 06:42:55;;;;;;;70.07;32.05;;;13.20;99.90;;;;;;5052332;28;20076;-71
2021/10/11 06:45:20;;;;;;;65.82;31.60;;;13.20;99.90;;;;;;5052279;28;20056;-72
2021/10/11 06:47:47;;;;;;;62.53;31.63;;;13.10;99.90;;;;;;5051810;28;20021;-71
2021/10/11 06:50:13;;;;;;;61.90;31.70;;;13.10;99.90;;;;;;5051973;28;20021;-70
2021/10/11 06:52:38;;;;;;;62.72;30.98;;;13.10;99.90;;;;;;5052538;28;20093;-70
2021/10/11 06:55:04;;;;;;;59.53;29.92;;;13.20;99.90;;;;;;5051898;28;20057;-70
2021/10/11 06:57:30;;;;;;;63.65;30.80;;;13.20;99.90;;;;;;5051791;28;20040;-72
2021/10/11 06:59:56;;;;;;;67.43;31.13;;;13.40;99.90;;;;;;5051559;28;20025;-69
2021/10/11 07:02:21;;;;;;;65.65;31.02;;;13.30;99.80;;;;;;5050683;28;20057;-73
2021/10/11 07:04:47;;;;;;;63.38;31.27;;;13.30;99.90;;;;;;5052178;28;20043;-71
2021/10/11 07:07:13;;;;;;;68.00;30.98;;;13.30;99.80;;;;;;5051706;28;20033;-71
2021/10/11 07:09:38;;;;;;;59.97;29.52;;;13.20;99.80;;;;;;5050401;28;20452;-71
2021/10/11 07:12:04;;;;;;;61.25;30.48;;;13.10;99.90;;;;;;5050390;28;20029;-70
2021/10/11 07:14:30;;;;;;;67.13;31.90;;;13.20;99.90;;;;;;5051637;28;20036;-70
2021/10/11 07:16:55;;;;;;;57.08;28.88;;;13.30;99.90;;;;;;5052018;28;20029;-71
2021/10/11 07:19:21;;;;;;;65.80;29.83;;;13.30;99.90;;;;;;5051405;28;20029;-70
2021/10/11 07:21:46;;;;;;;60.42;29.73;;;13.40;99.90;;;;;;5051449;28;20485;-70
2021/10/11 07:24:14;;;;;;;59.83;28.63;;;13.40;99.80;;;;;;5051305;28;20167;-71
2021/10/11 07:26:40;;;;;;;59.53;29.07;;;13.50;99.70;;;;;;5051534;28;20049;-72
2021/10/11 07:29:06;;;;;;;62.28;28.33;;;13.50;99.80;;;;;;5051402;28;20350;-71
2021/10/11 07:31:32;;;;;;;56.20;27.75;;;13.50;99.70;;;;;;5050969;28;20063;-71
2021/10/11 07:33:58;;;;;;;57.55;27.58;;;13.50;99.70;;;;;;5051165;28;20040;-71
2021/10/11 07:36:24;;;;;;;57.97;26.23;;;13.50;99.60;;;;;;5050216;28;20037;-71
2021/10/11 07:38:49;;;;;;;51.88;25.23;;;13.50;99.60;;;;;;5051200;28;20035;-71
2021/10/11 07:41:15;;;;;;;49.30;25.17;;;13.50;99.60;;;;;;5051452;28;20116;-71
2021/10/11 07:43:40;;;;;;;51.67;27.33;;;13.50;99.70;;;;;;5051474;28;20055;-71
2021/10/11 07:46:07;;;;;;;51.05;26.00;;;13.50;99.70;;;;;;5051094;28;20044;-70
2021/10/11 07:48:33;;;;;;;60.88;27.13;;;13.60;99.70;;;;;;5051191;28;20473;-70
2021/10/11 07:50:58;;;;;;;51.70;26.45;;;13.60;99.90;;;;;;5050689;28;20182;-69
2021/10/11 07:53:24;;;;;;;56.38;25.48;;;13.60;99.90;;;;;;5050814;28;20094;-69
2021/10/11 07:55:50;;;;;;;51.78;24.75;;;13.70;99.80;;;;;;5051101;28;20122;-70
2021/10/11 07:58:16;;;;;;;49.03;24.23;;;13.70;99.90;;;;;;5051239;28;20033;-70
2021/10/11 08:00:41;;;;;;;48.78;23.30;;;13.70;99.70;;;;;;5050854;28;20033;-69
2021/10/11 08:03:08;;;;;;;47.65;22.75;;;13.70;99.90;;;;;;5050801;28;20029;-70
2021/10/11 08:05:34;;;;;;;50.53;22.80;;;13.70;99.80;;;;;;5050755;28;20021;-70
2021/10/11 08:08:00;;;;;;;50.90;23.88;;;13.80;99.70;;;;;;5050651;28;20114;-70
2021/10/11 08:10:26;;;;;;;50.70;20.98;;;13.70;99.60;;;;;;5050739;28;20087;-70
2021/10/11 08:12:51;;;;;;;46.60;21.88;;;13.70;99.60;;;;;;5050810;28;20138;-70
2021/10/11 08:15:20;;;;;;;40.83;20.65;;;13.70;99.70;;;;;;5050653;28;20025;-70
2021/10/11 08:17:45;;;;;;;41.03;19.42;;;13.80;99.60;;;;;;5049234;28;20049;-70
2021/10/11 08:20:11;;;;;;;46.08;19.38;;;13.90;99.60;;;;;;5050334;28;20138;-70
2021/10/11 08:22:37;;;;;;;44.72;21.20;;;13.90;99.50;;;;;;5050267;28;20029;-71
2021/10/11 08:25:04;;;;;;;44.45;18.92;;;13.80;99.50;;;;;;5050506;28;20037;-71
2021/10/11 08:27:30;;;;;;;41.50;19.45;;;13.90;99.50;;;;;;5050365;28;20041;-71
2021/10/11 08:29:55;;;;;;;36.58;18.08;;;14.00;99.50;;;;;;5050568;28;20141;-71
2021/10/11 08:32:23;;;;;;;40.60;18.98;;;14.00;99.30;;;;;;5050302;28;20029;-71
2021/10/11 08:34:51;;;;;;;42.75;20.25;;;14.10;99.20;;;;;;5050788;28;20104;-71
2021/10/11 08:37:17;;;;;;;38.58;19.00;;;14.10;99.20;;;;;;5049409;28;20405;-71
2021/10/11 08:39:43;;;;;;;34.63;16.77;;;14.10;99.20;;;;;;5050392;28;20045;-70
2021/10/11 08:42:11;;;;;;;37.40;16.83;;;14.20;98.90;;;;;;5051301;28;20061;-69
2021/10/11 08:44:36;;;;;;;38.30;16.30;;;14.20;99.00;;;;;;5054566;28;20060;-71
2021/10/11 08:47:02;;;;;;;46.67;17.42;;;14.30;98.90;;;;;;5054149;28;20057;-71
2021/10/11 08:49:29;;;;;;;38.13;15.77;;;14.60;98.80;;;;;;5054771;28;20025;-71
2021/10/11 08:51:55;;;;;;;32.45;13.90;;;14.70;98.30;;;;;;5054091;28;20029;-70
2021/10/11 08:54:20;;;;;;;32.80;15.60;;;14.70;98.00;;;;;;5054199;28;20103;-70
2021/10/11 08:56:46;;;;;;;33.08;15.60;;;14.90;97.90;;;;;;5054398;28;20025;-70
2021/10/11 08:59:12;;;;;;;32.83;14.98;;;14.90;97.80;;;;;;5054013;28;20036;-71
2021/10/11 09:01:39;;;;;;;35.97;17.05;;;14.90;98.00;;;;;;5054523;28;20025;-71
2021/10/11 09:04:25;;;;;;;32.17;15.60;;;15.20;97.70;;;;;;5054264;28;20102;-70
2021/10/11 09:07:07;;;;;;;33.53;14.90;;;15.60;97.30;;;;;;5052764;28;20447;-71
2021/10/11 09:09:33;;;;;;;31.02;13.80;;;15.80;96.90;;;;;;5053364;28;20044;-69
2021/10/11 09:11:59;;;;;;;32.42;13.57;;;16.40;96.30;;;;;;5054204;28;20035;-70
2021/10/11 09:14:26;;;;;;;29.92;12.13;;;16.90;96.10;;;;;;5053765;28;20057;-70
2021/10/11 09:17:01;;;;;;;26.92;11.82;;;17.10;94.70;;;;;;5053964;28;20101;-71
2021/10/11 09:19:45;;;;;;;25.05;12.30;;;17.30;94.20;;;;;;5053917;28;20032;-71
2021/10/11 09:22:11;;;;;;;21.95;10.25;;;17.90;94.60;;;;;;5053620;28;20029;-70
2021/10/11 09:24:36;;;;;;;22.58;10.52;;;18.80;92.60;;;;;;5053887;28;20079;-70
2021/10/11 09:27:02;;;;;;;19.00;8.43;;;19.80;91.80;;;;;;5053683;28;20036;-71
2021/10/11 09:29:33;;;;;;;29.67;8.48;;;20.10;90.30;;;;;;5053728;28;20033;-70
2021/10/11 09:32:09;;;;;;;19.45;7.50;;;20.30;88.60;;;;;;5053387;28;20132;-70
2021/10/11 09:34:38;;;;;;;21.13;7.85;;;20.80;89.70;;;;;;5053874;28;20362;-70
2021/10/11 09:37:10;;;;;;;17.38;6.75;;;20.70;86.20;;;;;;5053377;28;20033;-71
2021/10/11 09:39:38;;;;;;;18.50;6.10;;;20.10;86.40;;;;;;5053387;28;20120;-70
2021/10/11 09:42:06;;;;;;;17.65;6.00;;;19.40;87.00;;;;;;5053572;28;20518;-70
2021/10/11 09:44:32;;;;;;;13.98;5.95;;;18.80;88.40;;;;;;5053382;28;20124;-70
2021/10/11 09:47:03;;;;;;;16.80;6.00;;;18.40;89.10;;;;;;5053851;28;20112;-70
2021/10/11 09:49:29;;;;;;;12.48;5.28;;;18.50;89.70;;;;;;5053345;28;20539;-70
2021/10/11 09:51:56;;;;;;;14.85;5.68;;;18.30;90.10;;;;;;5053084;28;20083;-70
2021/10/11 09:54:23;;;;;;;14.13;5.00;;;18.20;90.30;;;;;;5052578;28;20029;-70
2021/10/11 09:56:49;;;;;;;14.88;5.25;;;17.50;90.20;;;;;;5053029;28;20459;-70
2021/10/11 09:59:16;;;;;;;16.83;4.72;;;17.50;90.40;;;;;;5053108;28;20032;-70
2021/10/11 10:01:43;;;;;;;15.77;4.03;;;17.70;90.10;;;;;;5053519;28;20045;-69
2021/10/11 10:04:25;;;;;;;14.20;3.83;;;17.70;90.00;;;;;;5051875;28;20126;-71
2021/10/11 10:06:53;;;;;;;14.80;3.78;;;17.30;90.40;;;;;;5052587;28;20141;-70
2021/10/11 10:09:21;;;;;;;15.98;4.20;;;17.80;90.40;;;;;;5052679;28;20130;-69
2021/10/11 10:11:47;;;;;;;12.65;4.03;;;17.60;90.20;;;;;;5052894;28;20040;-70
2021/10/11 10:14:24;;;;;;;16.58;3.75;;;17.80;90.40;;;;;;5051503;28;20021;-71
2021/10/11 10:16:52;;;;;;;11.25;4.13;;;18.50;89.70;;;;;;5053042;28;20021;-70
2021/10/11 10:19:18;;;;;;;13.02;2.53;;;19.10;88.00;;;;;;5052438;28;20116;-72
2021/10/11 10:21:45;;;;;;;8.45;2.60;;;19.50;85.50;;;;;;5052658;28;20661;-71
2021/10/11 10:24:23;;;;;;;18.63;3.08;;;20.20;84.40;;;;;;5052661;28;20065;-71
2021/10/11 10:26:48;;;;;;;10.15;3.20;;;21.20;86.40;;;;;;5052671;28;20473;-71
2021/10/11 10:29:19;;;;;;;13.07;3.50;;;21.70;79.20;;;;;;5052588;28;20033;-71
2021/10/11 10:31:45;;;;;;;10.27;2.17;;;22.30;77.60;;;;;;5051648;28;20074;-71
2021/10/11 10:34:23;;;;;;;8.25;2.25;;;22.50;79.50;;;;;;5051213;28;20036;-72
2021/10/11 10:37:05;;;;;;;;;;;23.40;76.00;;;;;;5052805;28;20119;-71
2021/10/11 10:39:43;;;;;;;13.63;2.80;;;23.40;74.70;;;;;;5052391;28;19912;-72
2021/10/11 10:42:27;;;;;;;9.75;2.58;;;23.80;72.70;;;;;;5052274;28;20132;-72
2021/10/11 10:44:54;;;;;;;8.13;2.65;;;24.00;72.30;;;;;;5052395;28;20021;-71
2021/10/11 10:47:33;;;;;;;12.73;4.38;;;24.20;70.70;;;;;;5052096;28;20128;-71
2021/10/11 10:49:59;;;;;;;7.45;2.20;;;24.70;68.80;;;;;;5052352;28;20423;-71
2021/10/11 10:52:25;;;;;;;7.95;2.60;;;24.80;69.00;;;;;;5051087;28;20055;-70
2021/10/11 10:54:59;;;;;;;6.38;2.78;;;24.60;67.40;;;;;;5052088;28;20033;-71
2021/10/11 10:57:28;;;;;;;9.25;2.80;;;24.70;66.60;;;;;;5052112;28;20033;-71
2021/10/11 10:59:57;;;;;;;10.52;3.75;;;24.70;65.50;;;;;;5051746;28;20091;-71
2021/10/11 11:02:22;;;;;;;10.60;4.78;;;24.40;66.70;;;;;;5051780;28;20436;-71
2021/10/11 11:04:57;;;;;;;12.25;4.35;;;25.40;67.70;;;;;;5052444;28;20024;-71
2021/10/11 11:07:36;;;;;;;11.52;4.10;;;25.80;64.00;;;;;;5051978;28;20058;-71
2021/10/11 11:10:22;;;;;;;12.32;2.88;;;25.00;65.10;;;;;;5051648;28;20144;-71
2021/10/11 11:12:59;;;;;;;12.02;4.03;;;24.50;65.20;;;;;;5051787;28;20025;-71
2021/10/11 11:15:38;;;;;;;13.80;4.20;;;24.60;64.40;;;;;;5051398;28;20025;-71
2021/10/11 11:18:25;;;;;;;9.40;3.00;;;24.40;65.30;;;;;;5051800;28;20144;-71
2021/10/11 11:20:53;;;;;;;8.65;2.38;;;24.40;64.00;;;;;;5051395;28;20029;-71
2021/10/11 11:23:21;;;;;;;;;;;23.80;66.50;;;;;;5050704;28;20434;-70
2021/10/11 11:25:50;;;;;;;13.40;2.80;;;23.50;65.30;;;;;;5052282;28;19904;-70
2021/10/11 11:28:20;;;;;;;8.02;2.03;;;23.80;65.30;;;;;;5051440;28;20033;-71
2021/10/11 11:30:46;;;;;;;12.35;2.60;;;22.90;64.20;;;;;;5051164;28;20116;-71
2021/10/11 11:33:16;;;;;;;9.77;1.85;;;23.10;66.40;;;;;;5051351;28;20026;-70
2021/10/11 11:35:49;;;;;;;9.20;2.10;;;23.10;65.50;;;;;;5051276;28;20101;-71
2021/10/11 11:38:19;;;;;;;9.98;2.20;;;22.90;64.60;;;;;;5051300;28;20021;-70
2021/10/11 11:40:56;;;;;;;7.22;1.95;;;22.90;65.10;;;;;;5051822;28;20044;-70
2021/10/11 11:43:22;;;;;;;7.38;1.88;;;22.20;66.90;;;;;;5051260;28;20036;-70
2021/10/11 11:45:53;;;;;;;11.35;2.50;;;21.80;66.90;;;;;;5051231;28;20032;-71
2021/10/11 11:48:21;;;;;;;11.32;2.50;;;22.00;67.00;;;;;;5050989;28;20585;-71
2021/10/11 11:51:03;;;;;;;6.85;2.00;;;21.30;67.00;;;;;;5050870;28;20033;-71
2021/10/11 11:53:32;;;;;;;10.40;2.10;;;20.80;67.50;;;;;;5050947;28;20029;-71
2021/10/11 11:55:58;;;;;;;7.00;1.42;;;20.30;69.30;;;;;;5051712;28;20111;-70
2021/10/11 11:58:35;;;;;;;7.82;1.63;;;20.20;69.70;;;;;;5051115;28;20063;-71
2021/10/11 12:01:08;;;;;;;7.95;2.00;;;19.80;70.40;;;;;;5050751;28;20040;-70
2021/10/11 12:03:37;;;;;;;7.95;1.70;;;20.00;70.50;;;;;;5050704;28;20502;-70
2021/10/11 12:06:04;;;;;;;8.88;1.88;;;19.90;70.60;;;;;;5050811;28;20021;-71
2021/10/11 12:08:30;;;;;;;16.10;2.38;;;19.60;72.10;;;;;;5050538;28;20079;-71
2021/10/11 12:11:03;;;;;;;14.20;2.65;;;19.40;73.90;;;;;;5051231;28;20459;-71
2021/10/11 12:13:31;;;;;;;15.35;2.25;;;19.20;74.70;;;;;;5051225;28;20616;-70
2021/10/11 12:16:06;;;;;;;10.40;1.40;;;19.10;75.70;;;;;;5050705;28;20022;-71
2021/10/11 12:18:37;;;;;;;10.55;1.58;;;18.30;76.20;;;;;;5049898;28;20063;-70
2021/10/11 12:21:04;;;;;;;12.68;1.70;;;18.20;77.40;;;;;;5050693;28;20071;-70
2021/10/11 12:23:41;;;;;;;11.20;2.45;;;18.10;78.60;;;;;;5050614;28;20444;-70
2021/10/11 12:26:08;;;;;;;15.73;1.77;;;17.90;81.30;;;;;;5049658;28;20021;-71
2021/10/11 12:28:34;;;;;;;14.18;2.13;;;17.60;84.00;;;;;;5050854;28;20096;-70
2021/10/11 12:31:04;;;;;;;11.07;1.90;;;17.10;86.60;;;;;;5050463;28;20033;-70
2021/10/11 12:33:38;;;;;;;9.15;1.50;;;16.80;87.20;;;;;;5050657;28;20619;-71